sensor_id;sensor_type;location;lat;lon;timestamp;P1;durP1;ratioP1;P2;durP2;ratioP2
22660;SDS011;11497;52.222;21.246;2023-03-23T00:02:00;47.75;;;25.15;;
22660;SDS011;11497;52.222;21.246;2023-03-23T00:04:27;48.38;;;26.20;;
22660;SDS011;11497;52.222;21.246;2023-03-23T00:06:54;43.13;;;24.80;;
22660;SDS011;11497;52.222;21.246;2023-03-23T00:09:21;42.13;;;25.60;;
22660;SDS011;11497;52.222;21.246;2023-03-23T00:11:49;44.03;;;24.02;;
22660;SDS011;11497;52.222;21.246;2023-03-23T00:14:17;42.97;;;25.17;;
22660;SDS011;11497;52.222;21.246;2023-03-23T00:16:48;42.97;;;24.33;;
22660;SDS011;11497;52.222;21.246;2023-03-23T00:19:16;44.33;;;24.92;;
22660;SDS011;11497;52.222;21.246;2023-03-23T00:21:45;45.70;;;24.52;;
22660;SDS011;11497;52.222;21.246;2023-03-23T00:24:12;43.40;;;24.05;;
22660;SDS011;11497;52.222;21.246;2023-03-23T00:26:44;44.38;;;25.67;;
22660;SDS011;11497;52.222;21.246;2023-03-23T00:29:16;44.08;;;24.23;;
22660;SDS011;11497;52.222;21.246;2023-03-23T00:31:51;43.85;;;25.27;;
22660;SDS011;11497;52.222;21.246;2023-03-23T00:34:19;43.22;;;24.45;;
22660;SDS011;11497;52.222;21.246;2023-03-23T00:36:51;42.42;;;23.50;;
22660;SDS011;11497;52.222;21.246;2023-03-23T00:39:22;42.95;;;25.40;;
22660;SDS011;11497;52.222;21.246;2023-03-23T00:41:51;41.42;;;24.85;;
22660;SDS011;11497;52.222;21.246;2023-03-23T00:44:18;43.45;;;25.33;;
22660;SDS011;11497;52.222;21.246;2023-03-23T00:46:49;42.42;;;25.30;;
22660;SDS011;11497;52.222;21.246;2023-03-23T00:49:16;44.72;;;25.25;;
22660;SDS011;11497;52.222;21.246;2023-03-23T00:51:45;45.13;;;25.48;;
22660;SDS011;11497;52.222;21.246;2023-03-23T00:54:12;45.28;;;25.90;;
22660;SDS011;11497;52.222;21.246;2023-03-23T00:56:39;45.05;;;25.67;;
22660;SDS011;11497;52.222;21.246;2023-03-23T00:59:05;48.25;;;25.48;;
22660;SDS011;11497;52.222;21.246;2023-03-23T01:01:32;47.85;;;26.75;;
22660;SDS011;11497;52.222;21.246;2023-03-23T01:04:00;45.63;;;26.63;;
22660;SDS011;11497;52.222;21.246;2023-03-23T01:06:33;47.22;;;26.45;;
22660;SDS011;11497;52.222;21.246;2023-03-23T01:09:05;47.63;;;26.67;;
22660;SDS011;11497;52.222;21.246;2023-03-23T01:11:33;46.65;;;26.98;;
22660;SDS011;11497;52.222;21.246;2023-03-23T01:14:00;44.80;;;26.42;;
22660;SDS011;11497;52.222;21.246;2023-03-23T01:16:27;47.25;;;26.55;;
22660;SDS011;11497;52.222;21.246;2023-03-23T01:18:54;47.00;;;27.55;;
22660;SDS011;11497;52.222;21.246;2023-03-23T01:21:21;48.35;;;27.08;;
22660;SDS011;11497;52.222;21.246;2023-03-23T01:23:50;43.78;;;25.05;;
22660;SDS011;11497;52.222;21.246;2023-03-23T01:26:19;53.17;;;26.77;;
22660;SDS011;11497;52.222;21.246;2023-03-23T01:28:47;47.95;;;25.35;;
22660;SDS011;11497;52.222;21.246;2023-03-23T01:31:15;46.88;;;26.52;;
22660;SDS011;11497;52.222;21.246;2023-03-23T01:33:44;47.33;;;25.40;;
22660;SDS011;11497;52.222;21.246;2023-03-23T01:36:12;40.95;;;26.58;;
22660;SDS011;11497;52.222;21.246;2023-03-23T01:38:43;46.13;;;26.73;;
22660;SDS011;11497;52.222;21.246;2023-03-23T01:41:11;42.45;;;26.55;;
22660;SDS011;11497;52.222;21.246;2023-03-23T01:46:36;45.58;;;26.25;;
22660;SDS011;11497;52.222;21.246;2023-03-23T01:49:07;48.53;;;27.33;;
22660;SDS011;11497;52.222;21.246;2023-03-23T01:51:43;43.50;;;25.98;;
22660;SDS011;11497;52.222;21.246;2023-03-23T01:54:17;46.97;;;26.70;;
22660;SDS011;11497;52.222;21.246;2023-03-23T01:56:53;49.67;;;27.00;;
22660;SDS011;11497;52.222;21.246;2023-03-23T01:59:28;46.90;;;25.92;;
22660;SDS011;11497;52.222;21.246;2023-03-23T02:02:18;46.60;;;27.02;;
22660;SDS011;11497;52.222;21.246;2023-03-23T02:04:48;45.85;;;26.95;;
22660;SDS011;11497;52.222;21.246;2023-03-23T02:07:19;48.22;;;26.83;;
22660;SDS011;11497;52.222;21.246;2023-03-23T02:09:52;45.75;;;26.23;;
22660;SDS011;11497;52.222;21.246;2023-03-23T02:12:19;45.78;;;25.95;;
22660;SDS011;11497;52.222;21.246;2023-03-23T02:14:48;49.30;;;25.55;;
22660;SDS011;11497;52.222;21.246;2023-03-23T02:17:25;47.47;;;27.73;;
22660;SDS011;11497;52.222;21.246;2023-03-23T02:28:12;48.35;;;27.00;;
22660;SDS011;11497;52.222;21.246;2023-03-23T02:36:37;45.10;;;25.77;;
22660;SDS011;11497;52.222;21.246;2023-03-23T02:39:13;42.40;;;25.73;;
22660;SDS011;11497;52.222;21.246;2023-03-23T02:41:55;48.50;;;27.55;;
22660;SDS011;11497;52.222;21.246;2023-03-23T02:44:30;48.08;;;26.83;;
22660;SDS011;11497;52.222;21.246;2023-03-23T02:47:00;45.28;;;26.30;;
22660;SDS011;11497;52.222;21.246;2023-03-23T02:49:31;46.75;;;27.02;;
22660;SDS011;11497;52.222;21.246;2023-03-23T02:52:07;53.35;;;27.50;;
22660;SDS011;11497;52.222;21.246;2023-03-23T02:54:42;49.92;;;26.23;;
22660;SDS011;11497;52.222;21.246;2023-03-23T02:57:11;52.05;;;27.67;;
22660;SDS011;11497;52.222;21.246;2023-03-23T02:59:42;45.58;;;26.77;;
22660;SDS011;11497;52.222;21.246;2023-03-23T03:02:12;48.42;;;26.90;;
22660;SDS011;11497;52.222;21.246;2023-03-23T03:04:41;45.97;;;26.38;;
22660;SDS011;11497;52.222;21.246;2023-03-23T03:07:23;48.67;;;26.33;;
22660;SDS011;11497;52.222;21.246;2023-03-23T03:10:19;51.75;;;27.55;;
22660;SDS011;11497;52.222;21.246;2023-03-23T03:13:22;46.75;;;27.40;;
22660;SDS011;11497;52.222;21.246;2023-03-23T03:19:13;47.20;;;26.50;;
22660;SDS011;11497;52.222;21.246;2023-03-23T03:21:46;45.55;;;26.65;;
22660;SDS011;11497;52.222;21.246;2023-03-23T03:24:22;46.88;;;26.80;;
22660;SDS011;11497;52.222;21.246;2023-03-23T03:26:53;46.38;;;26.77;;
22660;SDS011;11497;52.222;21.246;2023-03-23T03:29:40;47.35;;;26.42;;
22660;SDS011;11497;52.222;21.246;2023-03-23T03:32:10;49.13;;;26.95;;
22660;SDS011;11497;52.222;21.246;2023-03-23T03:34:42;47.10;;;26.83;;
22660;SDS011;11497;52.222;21.246;2023-03-23T03:37:09;46.10;;;26.67;;
22660;SDS011;11497;52.222;21.246;2023-03-23T03:39:38;48.50;;;26.33;;
22660;SDS011;11497;52.222;21.246;2023-03-23T03:42:05;43.00;;;25.73;;
22660;SDS011;11497;52.222;21.246;2023-03-23T03:44:33;45.75;;;26.10;;
22660;SDS011;11497;52.222;21.246;2023-03-23T03:47:00;45.63;;;25.85;;
22660;SDS011;11497;52.222;21.246;2023-03-23T03:49:27;44.50;;;26.90;;
22660;SDS011;11497;52.222;21.246;2023-03-23T03:51:56;45.38;;;25.88;;
22660;SDS011;11497;52.222;21.246;2023-03-23T03:54:29;47.70;;;26.95;;
22660;SDS011;11497;52.222;21.246;2023-03-23T03:56:56;46.20;;;26.48;;
22660;SDS011;11497;52.222;21.246;2023-03-23T03:59:42;45.47;;;25.58;;
22660;SDS011;11497;52.222;21.246;2023-03-23T04:02:28;42.75;;;26.00;;
22660;SDS011;11497;52.222;21.246;2023-03-23T04:04:55;45.63;;;26.10;;
22660;SDS011;11497;52.222;21.246;2023-03-23T04:07:21;45.85;;;26.10;;
22660;SDS011;11497;52.222;21.246;2023-03-23T04:09:52;48.17;;;25.92;;
22660;SDS011;11497;52.222;21.246;2023-03-23T04:12:20;50.50;;;26.90;;
22660;SDS011;11497;52.222;21.246;2023-03-23T04:14:55;47.40;;;26.60;;
22660;SDS011;11497;52.222;21.246;2023-03-23T04:17:30;47.13;;;27.48;;
22660;SDS011;11497;52.222;21.246;2023-03-23T04:19:57;47.55;;;27.55;;
22660;SDS011;11497;52.222;21.246;2023-03-23T04:22:26;51.38;;;27.55;;
22660;SDS011;11497;52.222;21.246;2023-03-23T04:24:58;45.47;;;28.27;;
22660;SDS011;11497;52.222;21.246;2023-03-23T04:27:30;49.10;;;28.20;;
22660;SDS011;11497;52.222;21.246;2023-03-23T04:29:59;48.55;;;27.52;;
22660;SDS011;11497;52.222;21.246;2023-03-23T04:32:32;47.53;;;28.17;;
22660;SDS011;11497;52.222;21.246;2023-03-23T04:35:00;50.85;;;29.17;;
22660;SDS011;11497;52.222;21.246;2023-03-23T04:37:35;49.90;;;28.60;;
22660;SDS011;11497;52.222;21.246;2023-03-23T04:40:04;49.08;;;28.70;;
22660;SDS011;11497;52.222;21.246;2023-03-23T04:42:35;52.22;;;29.30;;
22660;SDS011;11497;52.222;21.246;2023-03-23T04:45:27;53.70;;;29.30;;
22660;SDS011;11497;52.222;21.246;2023-03-23T04:47:56;55.40;;;29.15;;
22660;SDS011;11497;52.222;21.246;2023-03-23T04:50:35;50.78;;;29.80;;
22660;SDS011;11497;52.222;21.246;2023-03-23T04:53:13;53.45;;;30.08;;
22660;SDS011;11497;52.222;21.246;2023-03-23T04:55:40;49.97;;;30.42;;
22660;SDS011;11497;52.222;21.246;2023-03-23T04:58:11;49.25;;;28.98;;
22660;SDS011;11497;52.222;21.246;2023-03-23T05:01:00;55.53;;;30.40;;
22660;SDS011;11497;52.222;21.246;2023-03-23T05:03:27;53.50;;;29.67;;
22660;SDS011;11497;52.222;21.246;2023-03-23T05:05:56;50.80;;;30.20;;
22660;SDS011;11497;52.222;21.246;2023-03-23T05:08:23;51.88;;;30.13;;
22660;SDS011;11497;52.222;21.246;2023-03-23T05:10:51;49.00;;;29.75;;
22660;SDS011;11497;52.222;21.246;2023-03-23T05:13:21;50.85;;;29.38;;
22660;SDS011;11497;52.222;21.246;2023-03-23T05:15:51;52.58;;;29.73;;
22660;SDS011;11497;52.222;21.246;2023-03-23T05:18:18;54.33;;;29.73;;
22660;SDS011;11497;52.222;21.246;2023-03-23T05:20:46;51.67;;;29.25;;
22660;SDS011;11497;52.222;21.246;2023-03-23T05:23:19;49.75;;;29.13;;
22660;SDS011;11497;52.222;21.246;2023-03-23T05:25:59;51.10;;;28.85;;
22660;SDS011;11497;52.222;21.246;2023-03-23T05:28:27;49.30;;;28.30;;
22660;SDS011;11497;52.222;21.246;2023-03-23T05:31:04;43.65;;;27.25;;
22660;SDS011;11497;52.222;21.246;2023-03-23T05:33:32;40.65;;;27.52;;
22660;SDS011;11497;52.222;21.246;2023-03-23T05:36:14;42.45;;;26.33;;
22660;SDS011;11497;52.222;21.246;2023-03-23T05:39:00;43.08;;;25.73;;
22660;SDS011;11497;52.222;21.246;2023-03-23T05:41:45;46.25;;;25.83;;
22660;SDS011;11497;52.222;21.246;2023-03-23T05:44:13;40.90;;;25.25;;
22660;SDS011;11497;52.222;21.246;2023-03-23T05:46:50;41.25;;;25.58;;
22660;SDS011;11497;52.222;21.246;2023-03-23T05:49:17;37.90;;;24.55;;
22660;SDS011;11497;52.222;21.246;2023-03-23T05:51:45;41.17;;;25.13;;
22660;SDS011;11497;52.222;21.246;2023-03-23T05:54:13;40.35;;;24.95;;
22660;SDS011;11497;52.222;21.246;2023-03-23T05:56:42;41.35;;;24.58;;
22660;SDS011;11497;52.222;21.246;2023-03-23T05:59:20;36.65;;;23.58;;
22660;SDS011;11497;52.222;21.246;2023-03-23T06:01:51;39.47;;;23.95;;
22660;SDS011;11497;52.222;21.246;2023-03-23T06:04:20;39.83;;;23.42;;
22660;SDS011;11497;52.222;21.246;2023-03-23T06:07:01;38.60;;;22.10;;
22660;SDS011;11497;52.222;21.246;2023-03-23T06:09:29;42.30;;;23.58;;
22660;SDS011;11497;52.222;21.246;2023-03-23T06:12:31;39.55;;;22.88;;
22660;SDS011;11497;52.222;21.246;2023-03-23T06:15:01;40.08;;;21.17;;
22660;SDS011;11497;52.222;21.246;2023-03-23T06:17:49;32.15;;;20.70;;
22660;SDS011;11497;52.222;21.246;2023-03-23T06:20:23;36.47;;;21.73;;
22660;SDS011;11497;52.222;21.246;2023-03-23T06:22:52;33.97;;;21.20;;
22660;SDS011;11497;52.222;21.246;2023-03-23T06:25:28;35.38;;;21.00;;
22660;SDS011;11497;52.222;21.246;2023-03-23T06:27:55;33.65;;;20.20;;
22660;SDS011;11497;52.222;21.246;2023-03-23T06:30:24;36.17;;;20.30;;
22660;SDS011;11497;52.222;21.246;2023-03-23T06:32:53;30.38;;;19.83;;
22660;SDS011;11497;52.222;21.246;2023-03-23T06:35:37;34.22;;;20.38;;
22660;SDS011;11497;52.222;21.246;2023-03-23T06:38:13;34.30;;;20.23;;
22660;SDS011;11497;52.222;21.246;2023-03-23T06:40:51;32.25;;;19.48;;
22660;SDS011;11497;52.222;21.246;2023-03-23T06:43:18;27.83;;;17.98;;
22660;SDS011;11497;52.222;21.246;2023-03-23T06:46:09;31.02;;;19.55;;
22660;SDS011;11497;52.222;21.246;2023-03-23T06:48:41;30.48;;;19.25;;
22660;SDS011;11497;52.222;21.246;2023-03-23T06:51:12;33.00;;;18.83;;
22660;SDS011;11497;52.222;21.246;2023-03-23T06:53:41;27.88;;;18.23;;
22660;SDS011;11497;52.222;21.246;2023-03-23T06:56:11;26.30;;;17.23;;
22660;SDS011;11497;52.222;21.246;2023-03-23T06:58:40;26.70;;;17.50;;
22660;SDS011;11497;52.222;21.246;2023-03-23T07:01:12;28.08;;;17.40;;
22660;SDS011;11497;52.222;21.246;2023-03-23T07:03:47;28.67;;;17.60;;
22660;SDS011;11497;52.222;21.246;2023-03-23T07:06:19;26.83;;;16.73;;
22660;SDS011;11497;52.222;21.246;2023-03-23T07:08:53;29.75;;;17.08;;
22660;SDS011;11497;52.222;21.246;2023-03-23T07:11:23;31.08;;;17.02;;
22660;SDS011;11497;52.222;21.246;2023-03-23T07:13:51;23.52;;;15.68;;
22660;SDS011;11497;52.222;21.246;2023-03-23T07:16:18;24.98;;;15.93;;
22660;SDS011;11497;52.222;21.246;2023-03-23T07:18:45;24.35;;;15.25;;
22660;SDS011;11497;52.222;21.246;2023-03-23T07:21:12;23.33;;;15.30;;
22660;SDS011;11497;52.222;21.246;2023-03-23T07:23:39;22.02;;;14.68;;
22660;SDS011;11497;52.222;21.246;2023-03-23T07:26:14;21.20;;;14.90;;
22660;SDS011;11497;52.222;21.246;2023-03-23T07:28:51;23.77;;;14.77;;
22660;SDS011;11497;52.222;21.246;2023-03-23T07:31:37;23.88;;;14.32;;
22660;SDS011;11497;52.222;21.246;2023-03-23T07:34:03;22.10;;;14.40;;
22660;SDS011;11497;52.222;21.246;2023-03-23T07:36:56;17.10;;;12.77;;
22660;SDS011;11497;52.222;21.246;2023-03-23T07:39:26;20.45;;;13.05;;
22660;SDS011;11497;52.222;21.246;2023-03-23T07:41:55;22.63;;;13.82;;
22660;SDS011;11497;52.222;21.246;2023-03-23T07:44:34;23.45;;;13.15;;
22660;SDS011;11497;52.222;21.246;2023-03-23T07:47:07;22.65;;;13.50;;
22660;SDS011;11497;52.222;21.246;2023-03-23T07:49:34;19.13;;;11.95;;
22660;SDS011;11497;52.222;21.246;2023-03-23T07:52:14;16.67;;;11.77;;
22660;SDS011;11497;52.222;21.246;2023-03-23T07:54:41;19.65;;;12.02;;
22660;SDS011;11497;52.222;21.246;2023-03-23T07:57:17;19.23;;;11.20;;
22660;SDS011;11497;52.222;21.246;2023-03-23T07:59:49;19.48;;;11.57;;
22660;SDS011;11497;52.222;21.246;2023-03-23T08:02:16;21.58;;;11.23;;
22660;SDS011;11497;52.222;21.246;2023-03-23T08:04:43;16.52;;;10.65;;
22660;SDS011;11497;52.222;21.246;2023-03-23T08:07:10;19.45;;;11.07;;
22660;SDS011;11497;52.222;21.246;2023-03-23T08:09:49;16.08;;;10.23;;
22660;SDS011;11497;52.222;21.246;2023-03-23T08:12:22;15.07;;;9.85;;
22660;SDS011;11497;52.222;21.246;2023-03-23T08:15:03;19.30;;;9.80;;
22660;SDS011;11497;52.222;21.246;2023-03-23T08:17:52;16.42;;;9.52;;
22660;SDS011;11497;52.222;21.246;2023-03-23T08:20:39;15.02;;;9.70;;
22660;SDS011;11497;52.222;21.246;2023-03-23T08:23:13;17.10;;;9.45;;
22660;SDS011;11497;52.222;21.246;2023-03-23T08:26:10;16.40;;;9.25;;
22660;SDS011;11497;52.222;21.246;2023-03-23T08:29:04;14.88;;;9.32;;
22660;SDS011;11497;52.222;21.246;2023-03-23T08:31:37;16.00;;;9.15;;
22660;SDS011;11497;52.222;21.246;2023-03-23T08:34:40;12.98;;;8.57;;
22660;SDS011;11497;52.222;21.246;2023-03-23T08:37:31;14.10;;;8.25;;
22660;SDS011;11497;52.222;21.246;2023-03-23T08:40:22;13.30;;;8.20;;
22660;SDS011;11497;52.222;21.246;2023-03-23T08:43:09;11.88;;;8.07;;
22660;SDS011;11497;52.222;21.246;2023-03-23T08:46:06;12.27;;;7.45;;
22660;SDS011;11497;52.222;21.246;2023-03-23T08:48:53;12.90;;;7.40;;
22660;SDS011;11497;52.222;21.246;2023-03-23T08:51:38;11.32;;;7.30;;
22660;SDS011;11497;52.222;21.246;2023-03-23T08:54:09;13.50;;;7.68;;
22660;SDS011;11497;52.222;21.246;2023-03-23T08:56:48;10.10;;;7.10;;
22660;SDS011;11497;52.222;21.246;2023-03-23T08:59:33;14.32;;;6.47;;
22660;SDS011;11497;52.222;21.246;2023-03-23T09:02:05;9.52;;;6.72;;
22660;SDS011;11497;52.222;21.246;2023-03-23T09:04:40;10.18;;;6.38;;
22660;SDS011;11497;52.222;21.246;2023-03-23T09:07:13;11.40;;;6.43;;
22660;SDS011;11497;52.222;21.246;2023-03-23T09:09:40;9.98;;;6.10;;
22660;SDS011;11497;52.222;21.246;2023-03-23T09:12:07;9.15;;;6.18;;
22660;SDS011;11497;52.222;21.246;2023-03-23T09:14:35;9.43;;;6.50;;
22660;SDS011;11497;52.222;21.246;2023-03-23T09:17:03;12.63;;;6.63;;
22660;SDS011;11497;52.222;21.246;2023-03-23T09:19:31;16.23;;;6.85;;
22660;SDS011;11497;52.222;21.246;2023-03-23T09:21:59;8.73;;;6.57;;
22660;SDS011;11497;52.222;21.246;2023-03-23T09:24:26;11.77;;;6.03;;
22660;SDS011;11497;52.222;21.246;2023-03-23T09:26:53;13.55;;;6.63;;
22660;SDS011;11497;52.222;21.246;2023-03-23T09:29:20;12.70;;;6.50;;
22660;SDS011;11497;52.222;21.246;2023-03-23T09:31:47;10.77;;;6.22;;
22660;SDS011;11497;52.222;21.246;2023-03-23T09:34:13;10.00;;;6.28;;
22660;SDS011;11497;52.222;21.246;2023-03-23T09:36:41;11.13;;;6.25;;
22660;SDS011;11497;52.222;21.246;2023-03-23T09:39:08;10.48;;;5.90;;
22660;SDS011;11497;52.222;21.246;2023-03-23T09:50:10;11.05;;;5.97;;
22660;SDS011;11497;52.222;21.246;2023-03-23T09:52:51;8.48;;;5.80;;
22660;SDS011;11497;52.222;21.246;2023-03-23T09:55:21;10.00;;;5.68;;
22660;SDS011;11497;52.222;21.246;2023-03-23T09:57:53;14.07;;;5.65;;
22660;SDS011;11497;52.222;21.246;2023-03-23T10:03:16;9.27;;;5.80;;
22660;SDS011;11497;52.222;21.246;2023-03-23T10:05:46;12.40;;;6.40;;
22660;SDS011;11497;52.222;21.246;2023-03-23T10:08:17;12.60;;;5.70;;
22660;SDS011;11497;52.222;21.246;2023-03-23T10:10:49;14.93;;;5.78;;
22660;SDS011;11497;52.222;21.246;2023-03-23T10:16:03;12.15;;;5.95;;
22660;SDS011;11497;52.222;21.246;2023-03-23T10:18:40;14.38;;;6.30;;
22660;SDS011;11497;52.222;21.246;2023-03-23T10:21:16;11.65;;;6.15;;
22660;SDS011;11497;52.222;21.246;2023-03-23T10:24:07;9.32;;;5.88;;
22660;SDS011;11497;52.222;21.246;2023-03-23T10:29:24;10.40;;;5.82;;
22660;SDS011;11497;52.222;21.246;2023-03-23T10:32:08;8.82;;;5.90;;
22660;SDS011;11497;52.222;21.246;2023-03-23T10:34:43;9.93;;;5.60;;
22660;SDS011;11497;52.222;21.246;2023-03-23T10:39:56;7.65;;;5.72;;
22660;SDS011;11497;52.222;21.246;2023-03-23T10:42:26;10.85;;;6.50;;
22660;SDS011;11497;52.222;21.246;2023-03-23T10:44:55;10.63;;;6.20;;
22660;SDS011;11497;52.222;21.246;2023-03-23T10:47:24;9.57;;;5.82;;
22660;SDS011;11497;52.222;21.246;2023-03-23T10:50:02;9.27;;;6.47;;
22660;SDS011;11497;52.222;21.246;2023-03-23T10:55:09;8.98;;;5.65;;
22660;SDS011;11497;52.222;21.246;2023-03-23T10:57:42;12.95;;;6.15;;
22660;SDS011;11497;52.222;21.246;2023-03-23T11:00:25;9.88;;;6.10;;
22660;SDS011;11497;52.222;21.246;2023-03-23T11:05:53;9.93;;;5.97;;
22660;SDS011;11497;52.222;21.246;2023-03-23T11:11:30;9.55;;;5.82;;
22660;SDS011;11497;52.222;21.246;2023-03-23T11:14:11;9.98;;;5.40;;
22660;SDS011;11497;52.222;21.246;2023-03-23T11:16:46;6.07;;;4.90;;
22660;SDS011;11497;52.222;21.246;2023-03-23T11:21:53;8.02;;;4.55;;
22660;SDS011;11497;52.222;21.246;2023-03-23T11:24:51;6.43;;;4.50;;
22660;SDS011;11497;52.222;21.246;2023-03-23T11:27:21;6.13;;;3.53;;
22660;SDS011;11497;52.222;21.246;2023-03-23T11:30:00;6.35;;;3.80;;
22660;SDS011;11497;52.222;21.246;2023-03-23T11:32:45;5.22;;;3.72;;
22660;SDS011;11497;52.222;21.246;2023-03-23T11:35:23;5.47;;;3.60;;
22660;SDS011;11497;52.222;21.246;2023-03-23T11:37:56;5.90;;;3.65;;
22660;SDS011;11497;52.222;21.246;2023-03-23T11:40:28;8.57;;;3.85;;
22660;SDS011;11497;52.222;21.246;2023-03-23T11:45:36;7.60;;;3.97;;
22660;SDS011;11497;52.222;21.246;2023-03-23T11:58:55;5.70;;;3.65;;
22660;SDS011;11497;52.222;21.246;2023-03-23T12:09:49;7.25;;;3.67;;
22660;SDS011;11497;52.222;21.246;2023-03-23T12:15:43;5.28;;;3.42;;
22660;SDS011;11497;52.222;21.246;2023-03-23T12:26:31;6.05;;;3.40;;
22660;SDS011;11497;52.222;21.246;2023-03-23T12:34:54;8.77;;;3.35;;
22660;SDS011;11497;52.222;21.246;2023-03-23T12:37:46;4.32;;;3.03;;
22660;SDS011;11497;52.222;21.246;2023-03-23T12:45:37;4.82;;;3.10;;
22660;SDS011;11497;52.222;21.246;2023-03-23T12:48:23;7.85;;;3.05;;
22660;SDS011;11497;52.222;21.246;2023-03-23T12:51:20;4.95;;;3.60;;
22660;SDS011;11497;52.222;21.246;2023-03-23T12:56:59;5.55;;;4.07;;
22660;SDS011;11497;52.222;21.246;2023-03-23T12:59:47;13.13;;;4.15;;
22660;SDS011;11497;52.222;21.246;2023-03-23T13:05:26;10.48;;;4.05;;
22660;SDS011;11497;52.222;21.246;2023-03-23T13:08:04;6.57;;;4.30;;
22660;SDS011;11497;52.222;21.246;2023-03-23T13:10:45;10.07;;;4.40;;
22660;SDS011;11497;52.222;21.246;2023-03-23T13:13:18;8.95;;;4.75;;
22660;SDS011;11497;52.222;21.246;2023-03-23T13:18:44;5.18;;;3.67;;
22660;SDS011;11497;52.222;21.246;2023-03-23T13:21:20;6.25;;;4.30;;
22660;SDS011;11497;52.222;21.246;2023-03-23T13:24:01;7.38;;;4.30;;
22660;SDS011;11497;52.222;21.246;2023-03-23T13:26:36;7.00;;;4.20;;
22660;SDS011;11497;52.222;21.246;2023-03-23T13:29:06;6.60;;;4.60;;
22660;SDS011;11497;52.222;21.246;2023-03-23T13:31:40;8.13;;;4.57;;
22660;SDS011;11497;52.222;21.246;2023-03-23T13:36:42;6.72;;;4.30;;
22660;SDS011;11497;52.222;21.246;2023-03-23T13:39:24;7.55;;;4.90;;
22660;SDS011;11497;52.222;21.246;2023-03-23T13:42:01;6.28;;;4.25;;
22660;SDS011;11497;52.222;21.246;2023-03-23T13:44:39;7.88;;;4.45;;
22660;SDS011;11497;52.222;21.246;2023-03-23T13:50:00;8.65;;;4.20;;
22660;SDS011;11497;52.222;21.246;2023-03-23T14:00:48;6.97;;;4.20;;
22660;SDS011;11497;52.222;21.246;2023-03-23T14:03:17;12.00;;;4.28;;
22660;SDS011;11497;52.222;21.246;2023-03-23T14:06:06;6.63;;;4.07;;
22660;SDS011;11497;52.222;21.246;2023-03-23T14:09:03;4.90;;;3.20;;
22660;SDS011;11497;52.222;21.246;2023-03-23T14:11:32;5.15;;;3.22;;
22660;SDS011;11497;52.222;21.246;2023-03-23T14:14:07;6.18;;;3.00;;
22660;SDS011;11497;52.222;21.246;2023-03-23T14:16:43;4.75;;;2.88;;
22660;SDS011;11497;52.222;21.246;2023-03-23T14:19:18;6.60;;;3.03;;
22660;SDS011;11497;52.222;21.246;2023-03-23T14:21:55;6.38;;;2.88;;
22660;SDS011;11497;52.222;21.246;2023-03-23T14:24:33;4.97;;;2.90;;
22660;SDS011;11497;52.222;21.246;2023-03-23T14:29:34;5.25;;;2.83;;
22660;SDS011;11497;52.222;21.246;2023-03-23T14:32:01;6.07;;;2.80;;
22660;SDS011;11497;52.222;21.246;2023-03-23T14:34:31;6.45;;;3.35;;
22660;SDS011;11497;52.222;21.246;2023-03-23T14:36:58;4.45;;;3.00;;
22660;SDS011;11497;52.222;21.246;2023-03-23T14:39:30;14.70;;;5.50;;
22660;SDS011;11497;52.222;21.246;2023-03-23T14:42:12;11.70;;;4.90;;
22660;SDS011;11497;52.222;21.246;2023-03-23T14:44:42;14.05;;;5.65;;
22660;SDS011;11497;52.222;21.246;2023-03-23T14:47:30;7.10;;;4.30;;
22660;SDS011;11497;52.222;21.246;2023-03-23T14:49:59;5.38;;;4.10;;
22660;SDS011;11497;52.222;21.246;2023-03-23T14:52:27;7.85;;;4.10;;
22660;SDS011;11497;52.222;21.246;2023-03-23T14:55:10;10.10;;;4.20;;
22660;SDS011;11497;52.222;21.246;2023-03-23T14:57:41;11.63;;;4.38;;
22660;SDS011;11497;52.222;21.246;2023-03-23T15:00:13;6.47;;;3.92;;
22660;SDS011;11497;52.222;21.246;2023-03-23T15:02:47;7.18;;;4.70;;
22660;SDS011;11497;52.222;21.246;2023-03-23T15:05:28;11.73;;;4.60;;
22660;SDS011;11497;52.222;21.246;2023-03-23T15:08:35;11.77;;;5.60;;
22660;SDS011;11497;52.222;21.246;2023-03-23T15:11:03;9.18;;;4.82;;
22660;SDS011;11497;52.222;21.246;2023-03-23T15:13:42;6.72;;;4.93;;
22660;SDS011;11497;52.222;21.246;2023-03-23T15:16:17;12.18;;;6.25;;
22660;SDS011;11497;52.222;21.246;2023-03-23T15:18:49;10.85;;;5.90;;
22660;SDS011;11497;52.222;21.246;2023-03-23T15:21:24;10.63;;;5.10;;
22660;SDS011;11497;52.222;21.246;2023-03-23T15:23:54;8.93;;;4.90;;
22660;SDS011;11497;52.222;21.246;2023-03-23T15:26:31;9.32;;;5.28;;
22660;SDS011;11497;52.222;21.246;2023-03-23T15:31:51;8.27;;;4.55;;
22660;SDS011;11497;52.222;21.246;2023-03-23T15:34:24;9.65;;;5.18;;
22660;SDS011;11497;52.222;21.246;2023-03-23T15:36:56;9.52;;;5.10;;
22660;SDS011;11497;52.222;21.246;2023-03-23T15:39:29;9.90;;;5.50;;
22660;SDS011;11497;52.222;21.246;2023-03-23T15:41:57;10.70;;;5.50;;
22660;SDS011;11497;52.222;21.246;2023-03-23T15:44:26;13.65;;;5.75;;
22660;SDS011;11497;52.222;21.246;2023-03-23T15:49:43;9.43;;;4.97;;
22660;SDS011;11497;52.222;21.246;2023-03-23T15:52:11;7.20;;;4.85;;
22660;SDS011;11497;52.222;21.246;2023-03-23T15:54:45;15.10;;;5.40;;
22660;SDS011;11497;52.222;21.246;2023-03-23T15:57:13;10.07;;;5.47;;
22660;SDS011;11497;52.222;21.246;2023-03-23T15:59:40;8.90;;;5.30;;
22660;SDS011;11497;52.222;21.246;2023-03-23T16:02:12;8.80;;;5.07;;
22660;SDS011;11497;52.222;21.246;2023-03-23T16:04:47;10.05;;;5.00;;
22660;SDS011;11497;52.222;21.246;2023-03-23T16:07:16;9.35;;;5.25;;
22660;SDS011;11497;52.222;21.246;2023-03-23T16:09:47;10.15;;;5.07;;
22660;SDS011;11497;52.222;21.246;2023-03-23T16:12:16;8.32;;;5.43;;
22660;SDS011;11497;52.222;21.246;2023-03-23T16:14:43;7.35;;;5.10;;
22660;SDS011;11497;52.222;21.246;2023-03-23T16:17:12;9.45;;;4.97;;
22660;SDS011;11497;52.222;21.246;2023-03-23T16:19:45;12.07;;;5.45;;
22660;SDS011;11497;52.222;21.246;2023-03-23T16:22:13;8.02;;;4.97;;
22660;SDS011;11497;52.222;21.246;2023-03-23T16:24:43;7.57;;;4.82;;
22660;SDS011;11497;52.222;21.246;2023-03-23T16:27:11;8.65;;;5.07;;
22660;SDS011;11497;52.222;21.246;2023-03-23T16:29:39;6.68;;;4.65;;
22660;SDS011;11497;52.222;21.246;2023-03-23T16:32:12;10.13;;;4.75;;
22660;SDS011;11497;52.222;21.246;2023-03-23T16:34:40;9.98;;;5.47;;
22660;SDS011;11497;52.222;21.246;2023-03-23T16:37:09;11.82;;;5.38;;
22660;SDS011;11497;52.222;21.246;2023-03-23T16:39:37;11.55;;;6.20;;
22660;SDS011;11497;52.222;21.246;2023-03-23T16:42:05;15.57;;;5.50;;
22660;SDS011;11497;52.222;21.246;2023-03-23T16:44:33;10.45;;;5.20;;
22660;SDS011;11497;52.222;21.246;2023-03-23T16:47:01;14.80;;;5.47;;
22660;SDS011;11497;52.222;21.246;2023-03-23T16:49:28;11.40;;;5.40;;
22660;SDS011;11497;52.222;21.246;2023-03-23T16:51:59;8.63;;;5.07;;
22660;SDS011;11497;52.222;21.246;2023-03-23T16:54:31;8.32;;;5.03;;
22660;SDS011;11497;52.222;21.246;2023-03-23T16:57:10;7.93;;;5.05;;
22660;SDS011;11497;52.222;21.246;2023-03-23T16:59:38;8.25;;;5.38;;
22660;SDS011;11497;52.222;21.246;2023-03-23T17:02:10;6.80;;;4.55;;